Calcium, New York
Current Conditions -  °F | °C
As of 10:58 AM on Sunday 21 Dec 2014 (Local Time) from KGTB Reporting Station
Overcast Overcast  
Wind Chill: 28°   Ceiling: 3000
Heat Index: 28°   Visibility: 10mi
Dew Point: 19°   Wind: 2mph
Humidity: 67%   Direction: 150°SSE
Pressure: 30.31"   Gusts: NA
Location:  44.03°N, 75.85°W
Report Text: KGTB 211558Z AUTO 15002KT 10SM BKN030 OVC049 M02/M07 A3031 RMK AO2 SLP275 T10221075
Loading
Personal Weather Stations






























Interactive Weather Map New forecast layout! Learn more

10-Day Weather Forecast

Advertisements
Track Severe Weather on mobile